Time;durP1;ratioP1;P1;durP2;ratioP2;P2;SDS_P1;SDS_P2;PMS_P1;PMS_P2;Temp;Humidity;BMP_temperature;BMP_pressure;BME280_temperature;BME280_humidity;BME280_pressure;Samples;Min_cycle;Max_cycle;Signal;HPM_P1;HPM_P2
2022/10/28 00:01:17;;;;;;;4.47;2.00;;;14.80;99.90;;;;;;5010754;28;20466;-66
2022/10/28 00:03:46;;;;;;;3.57;2.40;;;14.90;99.90;;;;;;5011147;28;20470;-66
2022/10/28 00:06:16;;;;;;;3.70;2.70;;;15.00;99.90;;;;;;5011274;28;20458;-66
2022/10/28 00:08:43;;;;;;;3.87;3.53;;;15.10;99.90;;;;;;5011437;28;20468;-66
2022/10/28 00:11:13;;;;;;;3.47;2.80;;;15.20;99.90;;;;;;5010977;28;20474;-66
2022/10/28 00:13:41;;;;;;;4.27;2.53;;;15.20;99.90;;;;;;5011774;28;20839;-66
2022/10/28 00:16:10;;;;;;;2.60;2.40;;;15.30;99.90;;;;;;5012147;28;20494;-66
2022/10/28 00:18:38;;;;;;;6.70;2.50;;;15.30;99.90;;;;;;5012659;28;20466;-65
2022/10/28 00:21:07;;;;;;;3.27;2.97;;;15.40;99.90;;;;;;5013029;28;20502;-66
2022/10/28 00:23:35;;;;;;;2.97;2.27;;;15.40;99.90;;;;;;5013142;28;20516;-66
2022/10/28 00:26:08;;;;;;;7.23;3.17;;;15.40;99.90;;;;;;5011820;28;20450;-66
2022/10/28 00:28:34;;;;;;;3.53;2.80;;;15.40;99.90;;;;;;5011351;28;20465;-66
2022/10/28 00:31:06;;;;;;;3.97;3.00;;;15.30;99.90;;;;;;5010791;28;20465;-66
2022/10/28 00:33:33;;;;;;;3.30;2.53;;;15.30;99.90;;;;;;5010602;28;20462;-66
2022/10/28 00:36:12;;;;;;;2.97;2.20;;;15.20;99.90;;;;;;5010815;28;20489;-66
2022/10/28 00:38:41;;;;;;;6.13;3.13;;;15.10;99.90;;;;;;5011036;28;20827;-66
2022/10/28 00:41:08;;;;;;;2.83;2.60;;;15.00;99.90;;;;;;5010678;28;20462;-66
2022/10/28 00:43:40;;;;;;;5.03;3.10;;;14.90;99.90;;;;;;5010587;28;20995;-66
2022/10/28 00:46:16;;;;;;;3.07;2.70;;;14.80;99.90;;;;;;5010989;28;20929;-66
2022/10/28 00:48:46;;;;;;;4.57;2.87;;;14.70;99.90;;;;;;5010961;28;20465;-66
2022/10/28 00:51:15;;;;;;;3.23;2.87;;;14.70;99.90;;;;;;5010319;28;20973;-67
2022/10/28 00:53:47;;;;;;;4.50;4.10;;;14.70;99.90;;;;;;5010847;28;20473;-66
2022/10/28 00:56:16;;;;;;;4.73;2.90;;;14.60;99.90;;;;;;5012670;28;20485;-66
2022/10/28 00:58:43;;;;;;;2.60;2.40;;;14.60;99.90;;;;;;5014791;28;20903;-66
2022/10/28 01:01:10;;;;;;;4.23;3.00;;;14.60;99.90;;;;;;5014152;28;20472;-65
2022/10/28 01:03:37;;;;;;;2.90;2.70;;;14.60;99.90;;;;;;5014146;28;20474;-67
2022/10/28 01:06:05;;;;;;;4.20;2.50;;;14.60;99.90;;;;;;5014328;28;20469;-66
2022/10/28 01:08:32;;;;;;;2.93;2.37;;;14.60;99.90;;;;;;5014560;28;20469;-65
2022/10/28 01:11:27;;;;;;;4.33;2.50;;;14.60;99.90;;;;;;5014199;28;20488;-66
2022/10/28 01:14:16;;;;;;;4.17;3.27;;;14.60;99.90;;;;;;5014415;28;20482;-66
2022/10/28 01:16:55;;;;;;;4.20;2.53;;;14.70;99.90;;;;;;5014455;28;20508;-66
2022/10/28 01:20:01;;;;;;;2.90;2.50;;;14.80;99.90;;;;;;5014323;28;20477;-66
2022/10/28 01:22:32;;;;;;;3.60;2.20;;;14.80;99.90;;;;;;5013797;28;20461;-66
2022/10/28 01:25:26;;;;;;;4.00;3.03;;;14.90;99.90;;;;;;5013984;28;20489;-66
2022/10/28 01:28:12;;;;;;;3.73;2.97;;;14.90;99.90;;;;;;5014110;28;20465;-66
2022/10/28 01:31:06;;;;;;;6.80;3.20;;;15.00;99.90;;;;;;5014080;28;20468;-66
2022/10/28 01:33:36;;;;;;;5.33;2.80;;;15.00;99.90;;;;;;5006901;28;20461;-66
2022/10/28 01:36:09;;;;;;;3.67;2.67;;;15.00;99.90;;;;;;5013731;28;20485;-66
2022/10/28 01:38:44;;;;;;;3.20;2.87;;;14.90;99.90;;;;;;5013960;28;20465;-65
2022/10/28 01:41:16;;;;;;;3.90;2.83;;;14.80;99.90;;;;;;5013365;28;20460;-66
2022/10/28 01:43:48;;;;;;;4.23;2.47;;;14.70;99.90;;;;;;5013713;28;20465;-66
2022/10/28 01:46:19;;;;;;;6.30;2.50;;;14.60;99.90;;;;;;5013716;28;20846;-66
2022/10/28 01:48:52;;;;;;;4.03;2.40;;;14.50;99.90;;;;;;5013805;28;20465;-66
2022/10/28 01:51:26;;;;;;;4.27;2.30;;;14.60;99.90;;;;;;5013170;28;21235;-66
2022/10/28 01:53:56;;;;;;;2.60;2.10;;;14.60;99.90;;;;;;5013603;28;20967;-66
2022/10/28 01:56:27;;;;;;;3.03;2.27;;;14.70;99.90;;;;;;5013439;28;20481;-66
2022/10/28 01:58:58;;;;;;;3.17;2.87;;;14.60;99.90;;;;;;5013553;28;20853;-66
2022/10/28 02:01:27;;;;;;;2.90;2.70;;;14.60;99.90;;;;;;5013048;28;20461;-66
2022/10/28 02:03:56;;;;;;;3.37;2.83;;;14.60;99.90;;;;;;5013335;28;20496;-67
2022/10/28 02:06:27;;;;;;;4.70;2.90;;;14.50;99.90;;;;;;5013368;28;20469;-66
2022/10/28 02:09:05;;;;;;;4.10;3.07;;;14.50;99.90;;;;;;5012632;28;20466;-66
2022/10/28 02:11:57;;;;;;;3.87;3.03;;;14.40;99.90;;;;;;5012922;28;20461;-65
2022/10/28 02:14:41;;;;;;;4.37;2.63;;;14.30;99.90;;;;;;5010023;28;20494;-66
2022/10/28 02:17:19;;;;;;;3.07;2.70;;;14.30;99.90;;;;;;5013034;28;20485;-66
2022/10/28 02:19:53;;;;;;;4.13;3.03;;;14.20;99.90;;;;;;5013234;28;20461;-66
2022/10/28 02:22:26;;;;;;;2.67;2.43;;;14.10;99.90;;;;;;5012599;28;20979;-66
2022/10/28 02:25:02;;;;;;;4.30;2.43;;;14.10;99.90;;;;;;5013051;28;20513;-65
2022/10/28 02:27:34;;;;;;;3.37;2.50;;;14.00;99.90;;;;;;5013260;28;20462;-66
2022/10/28 02:30:06;;;;;;;3.00;2.60;;;13.90;99.90;;;;;;5012806;28;20454;-66
2022/10/28 02:32:38;;;;;;;2.80;2.50;;;13.80;99.90;;;;;;5012484;28;20841;-66
2022/10/28 02:35:12;;;;;;;3.00;2.20;;;13.80;99.90;;;;;;5012691;28;20478;-66
2022/10/28 02:37:41;;;;;;;4.13;2.63;;;13.70;99.90;;;;;;5012984;28;20524;-66
2022/10/28 02:40:14;;;;;;;4.20;2.27;;;13.60;99.90;;;;;;5012712;28;20465;-66
2022/10/28 02:42:46;;;;;;;2.83;2.63;;;13.60;99.90;;;;;;5012409;28;20473;-67
2022/10/28 02:45:16;;;;;;;4.13;3.07;;;13.60;99.90;;;;;;5012459;28;20492;-66
2022/10/28 02:47:47;;;;;;;3.70;2.93;;;13.50;99.90;;;;;;5012901;28;21112;-66
2022/10/28 02:50:20;;;;;;;4.30;3.03;;;13.50;99.90;;;;;;5012417;28;20961;-66
2022/10/28 02:52:53;;;;;;;4.47;2.70;;;13.50;99.90;;;;;;5012186;28;20466;-66
2022/10/28 02:55:22;;;;;;;4.23;3.40;;;13.40;99.90;;;;;;5012233;28;20492;-65
2022/10/28 02:57:49;;;;;;;6.97;2.77;;;13.40;99.90;;;;;;5012647;28;20465;-66
2022/10/28 03:00:19;;;;;;;3.43;3.10;;;13.40;99.90;;;;;;5012106;28;20462;-65
2022/10/28 03:02:46;;;;;;;3.60;2.80;;;13.40;99.90;;;;;;5011917;28;20461;-66
2022/10/28 03:05:13;;;;;;;3.90;2.87;;;13.30;99.90;;;;;;5012110;28;20493;-66
2022/10/28 03:07:42;;;;;;;8.03;3.57;;;13.30;99.90;;;;;;5012401;28;20517;-66
2022/10/28 03:10:09;;;;;;;4.90;2.83;;;13.30;99.90;;;;;;5012149;28;20494;-65
2022/10/28 03:12:36;;;;;;;3.07;2.63;;;13.20;99.90;;;;;;5011839;28;20462;-66
2022/10/28 03:15:04;;;;;;;3.20;2.40;;;13.20;99.90;;;;;;5011839;28;20482;-65
2022/10/28 03:17:30;;;;;;;3.77;2.97;;;13.20;99.90;;;;;;5012173;28;20482;-66
2022/10/28 03:19:57;;;;;;;6.53;3.20;;;13.20;99.90;;;;;;5011767;28;20472;-66
2022/10/28 03:22:24;;;;;;;4.87;3.10;;;13.20;99.90;;;;;;5011501;28;20462;-66
2022/10/28 03:24:52;;;;;;;4.00;2.37;;;13.20;99.90;;;;;;5012027;28;20489;-67
2022/10/28 03:27:19;;;;;;;2.87;2.67;;;13.20;99.90;;;;;;5011832;28;20473;-66
2022/10/28 03:29:46;;;;;;;3.70;2.47;;;13.30;99.90;;;;;;5011937;28;20812;-66
2022/10/28 03:32:12;;;;;;;4.00;3.00;;;13.20;99.90;;;;;;5011516;28;20508;-66
2022/10/28 03:34:39;;;;;;;3.90;3.00;;;13.30;99.90;;;;;;5011894;28;20482;-66
2022/10/28 03:37:06;;;;;;;4.10;3.07;;;13.30;99.90;;;;;;5011597;28;20873;-66
2022/10/28 03:39:33;;;;;;;6.97;2.70;;;13.30;99.90;;;;;;5011801;28;20577;-66
2022/10/28 03:42:01;;;;;;;3.77;2.57;;;13.30;99.90;;;;;;5011054;28;20462;-66
2022/10/28 03:44:27;;;;;;;4.30;3.47;;;13.40;99.90;;;;;;5011604;28;20482;-66
2022/10/28 03:46:54;;;;;;;3.50;2.53;;;13.40;99.90;;;;;;5011664;28;20481;-66
2022/10/28 03:49:21;;;;;;;4.43;3.40;;;13.50;99.90;;;;;;5011411;28;20466;-66
2022/10/28 03:51:48;;;;;;;3.90;2.30;;;13.50;99.90;;;;;;5011008;28;20941;-66
2022/10/28 03:54:15;;;;;;;3.40;3.10;;;13.50;99.90;;;;;;5011260;28;20482;-66
2022/10/28 03:56:42;;;;;;;5.53;2.70;;;13.60;99.90;;;;;;5011541;28;20489;-66
2022/10/28 03:59:10;;;;;;;6.33;3.27;;;13.60;99.90;;;;;;5011196;28;20472;-66
2022/10/28 04:01:37;;;;;;;3.63;2.90;;;13.60;99.90;;;;;;5011003;28;20464;-66
2022/10/28 04:04:04;;;;;;;4.63;2.87;;;13.60;99.90;;;;;;5011003;28;21012;-66
2022/10/28 04:06:31;;;;;;;5.50;3.23;;;13.60;99.90;;;;;;5011354;28;20457;-65
2022/10/28 04:08:57;;;;;;;3.13;2.73;;;13.60;99.90;;;;;;5011197;28;20462;-65
2022/10/28 04:11:24;;;;;;;5.13;2.87;;;13.60;99.90;;;;;;5010726;28;20465;-66
2022/10/28 04:13:51;;;;;;;3.50;2.60;;;13.60;99.90;;;;;;5011129;28;20466;-66
2022/10/28 04:16:19;;;;;;;4.30;3.17;;;13.60;99.90;;;;;;5010902;28;20493;-65
2022/10/28 04:18:46;;;;;;;4.57;2.83;;;13.60;99.90;;;;;;5011273;28;20833;-66
2022/10/28 04:21:12;;;;;;;5.93;2.80;;;13.60;99.90;;;;;;5064109;22;21651;-68
2022/10/28 04:23:39;;;;;;;3.73;2.37;;;13.60;99.90;;;;;;5025674;28;20453;-69
2022/10/28 04:26:06;;;;;;;4.80;2.77;;;13.70;99.90;;;;;;5030522;28;20449;-69
2022/10/28 04:28:33;;;;;;;4.60;2.40;;;13.70;99.90;;;;;;5030713;28;20453;-68
2022/10/28 04:31:00;;;;;;;2.40;2.20;;;13.70;99.90;;;;;;5030078;28;20456;-68
2022/10/28 04:33:29;;;;;;;4.63;2.97;;;13.70;99.90;;;;;;5030235;28;20463;-68
2022/10/28 04:35:55;;;;;;;3.27;2.97;;;13.70;99.90;;;;;;5030519;28;20852;-68
2022/10/28 04:38:23;;;;;;;3.70;2.60;;;13.70;99.90;;;;;;5030660;28;20457;-68
2022/10/28 04:40:50;;;;;;;3.17;2.57;;;13.70;99.90;;;;;;5030588;28;20461;-68
2022/10/28 04:43:16;;;;;;;7.60;4.10;;;13.80;99.90;;;;;;5029755;28;20469;-69
2022/10/28 04:45:43;;;;;;;2.80;2.57;;;13.80;99.90;;;;;;5030634;28;20488;-68
2022/10/28 04:48:10;;;;;;;3.20;2.60;;;13.80;99.90;;;;;;5030403;28;20461;-68
2022/10/28 04:50:38;;;;;;;4.80;3.20;;;13.90;99.90;;;;;;5030458;28;20465;-68
2022/10/28 04:53:04;;;;;;;9.10;3.90;;;13.90;99.90;;;;;;5029790;28;20979;-69
2022/10/28 04:55:31;;;;;;;3.90;2.30;;;13.90;99.90;;;;;;5030931;28;20476;-68
2022/10/28 04:58:00;;;;;;;4.47;2.60;;;13.90;99.90;;;;;;5030487;28;20484;-68
2022/10/28 05:00:28;;;;;;;3.83;3.10;;;14.00;99.90;;;;;;5030386;28;20500;-68
2022/10/28 05:02:55;;;;;;;5.13;3.13;;;14.00;99.90;;;;;;5029971;28;20471;-68
2022/10/28 05:05:22;;;;;;;3.37;2.60;;;14.00;99.90;;;;;;5101585;22;20501;-68
2022/10/28 05:07:50;;;;;;;3.50;2.57;;;14.00;99.90;;;;;;5010602;28;20454;-68
2022/10/28 05:10:16;;;;;;;7.50;2.73;;;14.00;99.90;;;;;;5010440;28;20463;-68
2022/10/28 05:12:43;;;;;;;3.80;2.97;;;14.00;99.90;;;;;;5010380;28;20853;-67
2022/10/28 05:15:12;;;;;;;7.47;4.90;;;14.00;99.90;;;;;;5010711;28;20485;-68
2022/10/28 05:17:40;;;;;;;4.13;2.60;;;14.00;99.90;;;;;;5010484;28;20477;-68
2022/10/28 05:20:08;;;;;;;3.83;2.90;;;14.00;99.90;;;;;;5010550;28;20465;-68
2022/10/28 05:22:35;;;;;;;5.20;2.93;;;14.00;99.90;;;;;;5009877;28;20458;-68
2022/10/28 05:25:04;;;;;;;3.30;2.50;;;14.00;99.90;;;;;;5010474;28;20481;-68
2022/10/28 05:27:31;;;;;;;5.63;3.30;;;14.00;99.90;;;;;;5010360;28;20489;-67
2022/10/28 05:29:57;;;;;;;3.90;2.50;;;14.00;99.90;;;;;;5010492;28;20470;-68
2022/10/28 05:32:24;;;;;;;2.83;2.53;;;13.90;99.90;;;;;;5009758;28;20469;-68
2022/10/28 05:34:51;;;;;;;4.07;2.70;;;13.90;99.90;;;;;;5010485;28;20489;-68
2022/10/28 05:37:18;;;;;;;5.87;2.90;;;13.90;99.90;;;;;;5010257;28;20486;-68
2022/10/28 05:39:44;;;;;;;4.37;3.30;;;13.90;99.90;;;;;;5010378;28;20450;-68
2022/10/28 05:42:13;;;;;;;4.13;2.83;;;13.80;99.90;;;;;;5010098;28;20462;-67
2022/10/28 05:44:39;;;;;;;3.10;2.73;;;13.80;99.90;;;;;;5013889;28;20478;-68
2022/10/28 05:47:06;;;;;;;4.70;2.90;;;13.70;99.90;;;;;;5013919;28;20468;-68
2022/10/28 05:49:33;;;;;;;3.77;2.60;;;13.70;99.90;;;;;;5013528;28;20461;-67
2022/10/28 05:51:59;;;;;;;4.43;3.03;;;13.70;99.90;;;;;;5013410;28;20462;-67
2022/10/28 05:54:26;;;;;;;4.57;3.37;;;13.70;99.90;;;;;;5013469;28;20485;-68
2022/10/28 05:56:53;;;;;;;5.03;3.20;;;13.60;99.90;;;;;;5013789;28;20504;-68
2022/10/28 05:59:21;;;;;;;3.63;3.33;;;13.60;99.90;;;;;;5013350;28;20457;-68
2022/10/28 06:01:47;;;;;;;5.83;3.30;;;13.60;99.90;;;;;;5013132;28;20833;-68
2022/10/28 06:04:14;;;;;;;4.00;3.10;;;13.50;99.90;;;;;;5013260;28;20489;-68
2022/10/28 06:06:41;;;;;;;6.70;3.23;;;13.50;99.90;;;;;;5013574;28;20462;-68
2022/10/28 06:09:08;;;;;;;5.27;2.77;;;13.50;99.90;;;;;;5013753;28;20465;-67
2022/10/28 06:11:35;;;;;;;3.60;2.50;;;13.50;99.90;;;;;;5012716;28;20462;-68
2022/10/28 06:14:02;;;;;;;4.43;3.00;;;13.50;99.90;;;;;;5013481;28;20553;-68
2022/10/28 06:16:30;;;;;;;2.63;2.43;;;13.50;99.90;;;;;;5013197;28;20493;-68
2022/10/28 06:18:57;;;;;;;5.10;2.67;;;13.50;99.90;;;;;;5012339;28;20481;-68
2022/10/28 06:21:24;;;;;;;3.70;2.83;;;13.40;99.90;;;;;;5012870;28;20470;-68
2022/10/28 06:23:51;;;;;;;3.40;2.70;;;13.40;99.90;;;;;;5012979;28;20500;-68
2022/10/28 06:26:18;;;;;;;2.50;2.27;;;13.40;99.90;;;;;;5013058;28;20834;-69
2022/10/28 06:28:47;;;;;;;6.90;3.20;;;13.40;99.90;;;;;;5013056;28;20469;-68
2022/10/28 06:31:14;;;;;;;5.40;2.97;;;13.30;99.90;;;;;;5012901;28;20528;-68
2022/10/28 06:33:42;;;;;;;3.53;2.37;;;13.40;99.90;;;;;;5013166;28;20480;-68
2022/10/28 06:36:09;;;;;;;4.10;3.13;;;13.50;99.90;;;;;;5013001;28;20492;-68
2022/10/28 06:38:36;;;;;;;6.33;3.00;;;13.60;99.90;;;;;;5012970;28;20497;-68
2022/10/28 06:41:03;;;;;;;2.97;2.67;;;13.60;99.90;;;;;;5012680;28;20462;-68
2022/10/28 06:43:30;;;;;;;6.23;3.00;;;13.60;99.90;;;;;;5012270;28;20462;-68
2022/10/28 06:46:01;;;;;;;3.13;2.83;;;13.70;99.90;;;;;;5012676;28;20485;-68
2022/10/28 06:48:28;;;;;;;3.07;2.77;;;13.80;99.90;;;;;;5012741;28;20958;-67
2022/10/28 06:50:57;;;;;;;3.50;3.20;;;13.80;99.90;;;;;;5012506;28;20466;-68
2022/10/28 06:53:24;;;;;;;6.47;3.43;;;13.90;99.90;;;;;;5011627;28;20954;-68
2022/10/28 06:55:54;;;;;;;4.23;3.20;;;13.90;99.90;;;;;;5012628;28;20489;-68
2022/10/28 06:58:22;;;;;;;3.63;2.60;;;13.90;99.90;;;;;;5012260;28;21000;-68
2022/10/28 07:00:49;;;;;;;3.43;2.33;;;13.90;99.90;;;;;;5012585;28;20846;-68
2022/10/28 07:03:17;;;;;;;3.70;2.93;;;13.80;99.90;;;;;;5011878;28;20462;-68
2022/10/28 07:05:44;;;;;;;2.57;2.37;;;13.80;99.90;;;;;;5012317;28;20533;-68
2022/10/28 07:08:13;;;;;;;4.23;3.83;;;13.80;99.90;;;;;;5012356;28;20462;-68
2022/10/28 07:10:40;;;;;;;3.13;2.43;;;13.90;99.90;;;;;;5012389;28;20470;-68
2022/10/28 07:13:07;;;;;;;2.40;2.20;;;14.00;99.90;;;;;;5012160;28;20469;-68
2022/10/28 07:15:34;;;;;;;3.67;2.50;;;14.10;99.90;;;;;;5012122;28;20486;-68
2022/10/28 07:18:01;;;;;;;2.80;2.27;;;14.20;99.90;;;;;;5012445;28;20508;-68
2022/10/28 07:20:30;;;;;;;6.00;2.57;;;14.30;99.90;;;;;;5012111;28;20470;-68
2022/10/28 07:22:58;;;;;;;6.57;2.50;;;14.40;99.90;;;;;;5011855;28;20465;-67
2022/10/28 07:25:26;;;;;;;5.57;2.70;;;14.40;99.90;;;;;;5011896;28;20490;-68
2022/10/28 07:27:53;;;;;;;3.13;2.23;;;14.50;99.90;;;;;;5008969;28;20461;-68
2022/10/28 07:30:20;;;;;;;4.87;2.17;;;14.50;99.90;;;;;;5010529;28;20462;-68
2022/10/28 07:32:47;;;;;;;4.63;2.43;;;14.60;99.90;;;;;;5011365;28;20466;-68
2022/10/28 07:35:14;;;;;;;2.93;2.03;;;14.70;99.90;;;;;;5009751;28;20489;-68
2022/10/28 07:37:40;;;;;;;2.00;1.87;;;14.80;99.90;;;;;;5027652;28;20476;-68
2022/10/28 07:40:08;;;;;;;2.20;1.97;;;14.90;99.90;;;;;;5025854;28;20471;-68
2022/10/28 07:42:36;;;;;;;2.23;1.90;;;15.00;99.90;;;;;;5029978;28;20465;-68
2022/10/28 07:45:04;;;;;;;2.73;2.27;;;15.10;99.90;;;;;;5024046;28;21180;-68
2022/10/28 07:47:32;;;;;;;3.00;2.30;;;15.10;99.90;;;;;;5010817;28;20457;-68
2022/10/28 07:49:58;;;;;;;3.73;2.17;;;15.10;99.90;;;;;;5010718;28;20858;-68
2022/10/28 07:52:26;;;;;;;2.03;1.93;;;15.20;99.90;;;;;;5010295;28;20474;-67
2022/10/28 07:54:52;;;;;;;2.80;2.17;;;15.30;99.90;;;;;;5010585;28;21039;-67
2022/10/28 07:57:19;;;;;;;2.00;1.60;;;15.40;99.90;;;;;;5010100;28;20509;-69
2022/10/28 07:59:47;;;;;;;3.60;2.03;;;15.50;99.90;;;;;;5010982;28;20856;-68
2022/10/28 08:02:17;;;;;;;3.30;2.30;;;15.50;99.90;;;;;;5010055;28;20466;-68
2022/10/28 08:04:44;;;;;;;2.63;2.07;;;15.60;99.90;;;;;;5010378;28;20500;-68
2022/10/28 08:07:11;;;;;;;2.10;1.70;;;15.60;99.90;;;;;;5009945;28;20516;-68
2022/10/28 08:09:38;;;;;;;4.70;2.87;;;15.70;99.90;;;;;;5009407;28;20474;-68
2022/10/28 08:12:05;;;;;;;2.30;1.70;;;15.70;99.90;;;;;;5010078;28;20496;-67
2022/10/28 08:14:32;;;;;;;4.17;2.20;;;15.80;99.90;;;;;;5010582;28;20843;-67
2022/10/28 08:17:00;;;;;;;3.07;1.90;;;15.80;99.90;;;;;;5010846;28;20462;-68
2022/10/28 08:19:27;;;;;;;2.30;1.90;;;15.80;99.90;;;;;;5007999;28;20489;-68
2022/10/28 08:21:54;;;;;;;4.40;2.27;;;15.90;99.90;;;;;;5009893;28;20478;-68
2022/10/28 08:24:21;;;;;;;3.33;1.83;;;16.00;99.90;;;;;;5011919;28;20477;-68
2022/10/28 08:26:47;;;;;;;1.80;1.37;;;16.10;99.90;;;;;;5029273;28;20476;-68
2022/10/28 08:29:14;;;;;;;3.10;1.80;;;16.10;99.90;;;;;;5029225;28;20464;-68
2022/10/28 08:31:41;;;;;;;2.93;1.60;;;16.20;99.90;;;;;;5028945;28;20496;-68
2022/10/28 08:34:09;;;;;;;2.20;1.60;;;16.30;99.90;;;;;;5022677;28;20481;-67
2022/10/28 08:36:36;;;;;;;3.53;2.00;;;16.30;99.90;;;;;;5010108;28;20466;-68
2022/10/28 08:39:03;;;;;;;3.53;1.80;;;16.40;99.90;;;;;;5009696;28;20496;-67
2022/10/28 08:41:36;;;;;;;3.27;1.50;;;16.50;99.90;;;;;;5009259;28;20465;-67
2022/10/28 08:44:28;;;;;;;9.20;1.90;;;16.60;99.90;;;;;;5009690;28;20485;-67
2022/10/28 08:47:07;;;;;;;2.60;1.63;;;16.70;99.90;;;;;;5010149;28;20478;-67
2022/10/28 08:49:40;;;;;;;3.20;1.60;;;16.80;99.90;;;;;;5009399;28;20476;-67
2022/10/28 08:52:16;;;;;;;2.73;1.83;;;16.90;99.90;;;;;;5009859;28;20466;-67
2022/10/28 08:54:49;;;;;;;2.97;1.63;;;17.00;99.90;;;;;;5009877;28;20520;-68
2022/10/28 08:57:21;;;;;;;4.20;1.80;;;17.10;99.90;;;;;;5009465;28;20462;-67
2022/10/28 08:59:51;;;;;;;1.60;1.47;;;17.20;99.90;;;;;;5010067;28;20472;-68
2022/10/28 09:02:22;;;;;;;4.27;1.47;;;17.40;99.90;;;;;;5009377;28;20461;-68
2022/10/28 09:04:58;;;;;;;2.73;1.77;;;17.50;99.90;;;;;;5009834;28;20499;-68
2022/10/28 09:07:25;;;;;;;3.73;1.50;;;17.70;99.90;;;;;;5008789;28;20458;-68
2022/10/28 09:09:56;;;;;;;4.40;3.33;;;17.80;99.90;;;;;;5009660;28;21024;-68
2022/10/28 09:12:37;;;;;;;4.17;2.27;;;17.90;99.90;;;;;;5009315;28;20458;-68
2022/10/28 09:15:16;;;;;;;2.20;1.50;;;18.10;99.90;;;;;;5009910;28;20486;-68
2022/10/28 09:17:52;;;;;;;4.90;1.90;;;18.20;99.90;;;;;;5012149;28;20576;-68
2022/10/28 09:20:30;;;;;;;2.30;1.60;;;18.30;99.90;;;;;;5012840;28;20523;-68
2022/10/28 09:22:58;;;;;;;3.43;1.57;;;18.30;99.90;;;;;;5013150;28;20465;-68
2022/10/28 09:25:33;;;;;;;1.90;1.57;;;18.40;99.90;;;;;;5013030;28;20486;-68
2022/10/28 09:28:22;;;;;;;2.60;2.00;;;18.40;99.90;;;;;;5013148;28;20461;-69
2022/10/28 09:30:57;;;;;;;1.97;1.80;;;18.60;99.90;;;;;;5013508;28;20508;-68
2022/10/28 09:33:42;;;;;;;3.80;1.67;;;18.80;99.90;;;;;;5011991;28;20461;-68
2022/10/28 09:36:16;;;;;;;2.87;1.90;;;18.90;99.90;;;;;;5012777;28;20465;-68
2022/10/28 09:38:44;;;;;;;2.43;1.30;;;19.00;99.90;;;;;;5013117;28;20494;-68
2022/10/28 09:41:17;;;;;;;2.20;1.53;;;19.10;99.90;;;;;;5012267;28;20465;-68
2022/10/28 09:43:48;;;;;;;2.60;1.50;;;19.20;99.90;;;;;;5011330;28;20461;-68
2022/10/28 09:46:17;;;;;;;4.13;2.03;;;19.40;99.90;;;;;;5012839;28;20991;-68
2022/10/28 09:48:47;;;;;;;3.43;1.37;;;19.50;99.90;;;;;;5013382;28;20481;-68
2022/10/28 09:51:25;;;;;;;2.07;1.60;;;19.60;99.90;;;;;;5012495;28;20488;-68
2022/10/28 09:53:56;;;;;;;3.93;1.90;;;19.80;99.90;;;;;;5013333;28;20849;-68
2022/10/28 09:56:23;;;;;;;2.90;1.73;;;20.10;99.90;;;;;;5012318;28;20476;-68
2022/10/28 09:58:52;;;;;;;2.00;1.40;;;20.40;99.90;;;;;;5013189;28;20978;-68
2022/10/28 10:01:19;;;;;;;3.70;1.53;;;20.60;99.90;;;;;;5012369;28;20468;-68
2022/10/28 10:03:49;;;;;;;5.30;1.93;;;21.00;99.90;;;;;;5012725;28;20995;-68
2022/10/28 10:06:20;;;;;;;3.10;1.77;;;21.00;99.90;;;;;;5012474;28;20984;-68
2022/10/28 10:08:47;;;;;;;3.47;1.53;;;21.00;99.90;;;;;;5012513;28;20465;-68
2022/10/28 10:11:24;;;;;;;3.50;1.80;;;21.00;99.90;;;;;;5012019;28;20478;-68
2022/10/28 10:13:52;;;;;;;2.87;2.23;;;21.10;99.90;;;;;;5012951;28;20475;-68
2022/10/28 10:16:26;;;;;;;2.30;1.53;;;21.20;99.90;;;;;;5011527;28;20866;-68
2022/10/28 10:18:59;;;;;;;2.20;1.60;;;21.20;99.90;;;;;;5012936;28;20489;-68
2022/10/28 10:21:46;;;;;;;3.10;1.60;;;21.00;99.90;;;;;;5011540;28;20481;-68
2022/10/28 10:24:29;;;;;;;2.63;1.97;;;21.00;99.90;;;;;;5012362;28;20481;-68
2022/10/28 10:26:57;;;;;;;2.60;1.77;;;20.90;99.90;;;;;;5019655;28;20465;-68
2022/10/28 10:29:25;;;;;;;2.80;1.80;;;20.90;99.90;;;;;;5031012;28;20840;-68
2022/10/28 10:32:06;;;;;;;1.70;1.50;;;20.90;99.90;;;;;;5031937;28;20472;-68
2022/10/28 10:34:33;;;;;;;3.40;1.97;;;20.90;99.90;;;;;;5032125;28;20875;-68
2022/10/28 10:37:03;;;;;;;1.97;1.60;;;20.80;99.90;;;;;;5032338;28;20571;-68
2022/10/28 10:39:35;;;;;;;1.87;1.70;;;20.90;99.90;;;;;;5031543;28;20494;-68
2022/10/28 10:42:03;;;;;;;2.57;1.53;;;20.90;99.90;;;;;;5032196;28;20883;-67
2022/10/28 10:44:34;;;;;;;3.33;1.87;;;20.90;99.90;;;;;;5031730;28;20488;-68
2022/10/28 10:47:21;;;;;;;2.07;1.70;;;21.00;99.90;;;;;;5031855;28;20472;-68
2022/10/28 10:49:50;;;;;;;4.47;1.93;;;21.10;99.90;;;;;;5032130;28;20976;-68
2022/10/28 10:52:21;;;;;;;3.23;1.77;;;21.10;99.90;;;;;;5031218;28;20460;-68
2022/10/28 10:54:58;;;;;;;2.07;1.73;;;21.00;99.90;;;;;;5031874;28;20484;-68
2022/10/28 10:57:26;;;;;;;2.47;1.83;;;21.00;99.90;;;;;;5022921;28;20480;-68
2022/10/28 10:59:55;;;;;;;2.40;1.63;;;21.00;99.90;;;;;;5011622;28;20483;-68
2022/10/28 11:02:26;;;;;;;4.73;2.20;;;21.00;99.90;;;;;;5010707;28;20489;-68
2022/10/28 11:07:22;;;;;;;2.17;1.67;;;21.10;99.90;;;;;;5009452;28;20502;-66
2022/10/28 11:09:50;;;;;;;2.20;1.40;;;21.20;99.90;;;;;;5027027;28;20457;-66
2022/10/28 11:12:26;;;;;;;2.27;1.80;;;21.40;99.90;;;;;;5030480;28;20460;-66
2022/10/28 11:14:56;;;;;;;2.47;1.53;;;21.50;99.90;;;;;;5031725;28;20479;-66
2022/10/28 11:17:25;;;;;;;2.80;1.70;;;21.50;99.90;;;;;;5031059;28;20882;-65
2022/10/28 11:19:55;;;;;;;4.50;1.73;;;21.50;99.90;;;;;;5031635;28;20491;-67
2022/10/28 11:22:39;;;;;;;3.63;1.30;;;21.50;99.90;;;;;;5030591;28;20478;-67
2022/10/28 11:25:32;;;;;;;4.23;1.57;;;21.50;99.90;;;;;;5030966;28;20495;-67
2022/10/28 11:28:23;;;;;;;4.20;2.13;;;21.40;99.90;;;;;;5031363;28;20461;-66
2022/10/28 11:31:00;;;;;;;2.03;1.80;;;21.40;99.90;;;;;;5031007;28;20472;-68
2022/10/28 11:33:36;;;;;;;3.33;1.77;;;21.40;99.90;;;;;;5030050;28;20475;-67
2022/10/28 11:36:15;;;;;;;3.30;1.63;;;21.50;99.90;;;;;;5031105;28;20464;-66
2022/10/28 11:39:09;;;;;;;2.23;1.80;;;21.70;99.90;;;;;;5031111;28;20523;-66
2022/10/28 11:41:46;;;;;;;2.83;1.57;;;21.80;99.90;;;;;;5029392;28;20457;-66
2022/10/28 11:44:27;;;;;;;3.30;1.57;;;21.80;99.90;;;;;;5030322;28;20481;-68
2022/10/28 11:47:06;;;;;;;3.27;1.63;;;21.80;99.90;;;;;;5030366;28;20968;-68
2022/10/28 11:50:09;;;;;;;3.20;1.67;;;22.00;99.90;;;;;;5030393;28;20453;-68
2022/10/28 11:52:49;;;;;;;1.40;1.30;;;22.00;99.90;;;;;;5008384;28;21322;-68
2022/10/28 11:55:32;;;;;;;4.73;1.70;;;22.00;99.90;;;;;;5030024;28;21019;-68
2022/10/28 11:58:12;;;;;;;2.93;1.70;;;22.00;99.90;;;;;;5030317;28;20840;-68
2022/10/28 12:00:52;;;;;;;3.50;2.30;;;21.90;99.90;;;;;;5029647;28;20468;-68
2022/10/28 12:03:39;;;;;;;4.03;1.70;;;21.80;99.90;;;;;;5029849;28;20469;-68
2022/10/28 12:06:16;;;;;;;5.47;1.70;;;21.80;99.90;;;;;;5030624;28;20515;-68
2022/10/28 12:09:01;;;;;;;5.20;1.90;;;21.90;99.90;;;;;;5030395;28;20849;-68
2022/10/28 12:11:41;;;;;;;2.50;1.87;;;21.90;99.90;;;;;;5030002;28;20468;-68
2022/10/28 12:14:17;;;;;;;3.70;2.20;;;21.90;99.90;;;;;;5010655;28;20482;-68
2022/10/28 12:16:50;;;;;;;4.60;1.80;;;21.90;99.90;;;;;;5010872;28;20465;-67
2022/10/28 12:19:20;;;;;;;4.30;1.97;;;22.00;99.90;;;;;;5008881;28;21190;-69
2022/10/28 12:22:01;;;;;;;2.80;1.87;;;22.00;99.90;;;;;;5010434;28;20890;-67
2022/10/28 12:24:29;;;;;;;3.90;1.90;;;22.30;99.90;;;;;;5009614;28;20914;-68
2022/10/28 12:26:59;;;;;;;4.20;1.73;;;22.60;99.90;;;;;;5010509;28;20511;-69
2022/10/28 12:29:32;;;;;;;3.00;1.70;;;23.00;99.90;;;;;;5009452;28;20461;-68
2022/10/28 12:32:03;;;;;;;2.47;1.40;;;23.20;99.90;;;;;;5009567;28;21045;-66
2022/10/28 12:34:34;;;;;;;2.47;1.90;;;23.50;99.90;;;;;;5010129;28;20863;-68
2022/10/28 12:37:07;;;;;;;3.30;1.83;;;23.80;99.90;;;;;;5010417;28;20844;-66
2022/10/28 12:39:38;;;;;;;3.37;2.27;;;24.20;99.90;;;;;;5010123;28;21001;-67
2022/10/28 12:42:14;;;;;;;1.97;1.70;;;24.70;99.90;;;;;;5010090;28;20470;-67
2022/10/28 12:44:42;;;;;;;4.00;2.00;;;25.00;99.90;;;;;;5007754;28;20839;-67
2022/10/28 12:47:18;;;;;;;2.80;1.77;;;25.00;99.90;;;;;;5009353;28;20549;-68
2022/10/28 12:49:56;;;;;;;2.37;1.90;;;24.90;99.90;;;;;;5010086;28;20953;-68
2022/10/28 12:52:32;;;;;;;3.40;1.80;;;24.90;99.90;;;;;;5011438;28;20462;-69
2022/10/28 12:55:07;;;;;;;2.20;1.60;;;24.90;99.90;;;;;;5014384;28;20488;-68
2022/10/28 12:57:36;;;;;;;3.00;1.83;;;25.10;99.90;;;;;;5014556;28;20460;-67
2022/10/28 13:00:07;;;;;;;2.20;1.63;;;25.30;99.90;;;;;;5014556;28;20485;-67
2022/10/28 13:02:39;;;;;;;2.73;1.63;;;25.40;99.90;;;;;;5013056;28;20462;-68
2022/10/28 13:05:07;;;;;;;3.53;1.80;;;25.60;99.90;;;;;;5014102;28;20478;-66
2022/10/28 13:07:51;;;;;;;2.80;1.80;;;25.50;99.90;;;;;;5014771;28;20468;-67
2022/10/28 13:10:26;;;;;;;3.97;2.03;;;25.30;99.90;;;;;;5013958;28;20462;-67